Time;durP1;ratioP1;P1;durP2;ratioP2;P2;SDS_P1;SDS_P2;PMS_P1;PMS_P2;Temp;Humidity;BMP_temperature;BMP_pressure;BME280_temperature;BME280_humidity;BME280_pressure;Samples;Min_cycle;Max_cycle;Signal;HPM_P1;HPM_P2
2022/09/20 00:01:08;;;;;;;13.87;3.83;;;11.00;99.90;;;;;;5060588;28;20570;-83
2022/09/20 00:03:36;;;;;;;7.33;3.50;;;10.90;99.90;;;;;;5069445;28;20206;-82
2022/09/20 00:06:05;;;;;;;9.20;3.77;;;10.90;99.90;;;;;;5051343;28;20206;-82
2022/09/20 00:08:33;;;;;;;6.87;3.40;;;10.80;99.90;;;;;;5068594;28;20195;-82
2022/09/20 00:11:01;;;;;;;11.13;4.23;;;10.80;99.90;;;;;;5047176;28;20202;-83
2022/09/20 00:13:31;;;;;;;8.80;3.73;;;10.90;99.90;;;;;;5051301;28;20218;-82
2022/09/20 00:15:58;;;;;;;8.57;3.77;;;10.90;99.90;;;;;;5052556;28;20194;-85
2022/09/20 00:18:26;;;;;;;8.27;3.03;;;11.00;99.90;;;;;;5065329;28;20193;-82
2022/09/20 00:20:54;;;;;;;11.33;3.90;;;11.00;99.90;;;;;;5041688;28;20199;-82
2022/09/20 00:23:21;;;;;;;10.57;4.20;;;10.90;99.90;;;;;;5050996;28;20194;-82
2022/09/20 00:25:55;;;;;;;8.30;3.90;;;10.90;99.90;;;;;;5061273;28;20209;-83
2022/09/20 00:28:23;;;;;;;9.20;4.00;;;10.90;99.90;;;;;;5070548;28;20679;-82
2022/09/20 00:30:53;;;;;;;9.63;3.93;;;10.90;99.90;;;;;;5049572;28;20205;-83
2022/09/20 00:33:21;;;;;;;8.87;3.73;;;10.80;99.90;;;;;;5051904;28;20220;-85
2022/09/20 00:35:48;;;;;;;9.60;3.90;;;10.90;99.90;;;;;;5055277;28;20206;-83
2022/09/20 00:38:16;;;;;;;8.03;3.70;;;11.00;99.90;;;;;;5060613;28;20218;-82
2022/09/20 00:40:44;;;;;;;10.17;3.70;;;10.90;99.90;;;;;;5054822;28;20194;-82
2022/09/20 00:43:15;;;;;;;7.90;3.50;;;10.90;99.90;;;;;;5060703;28;20660;-82
2022/09/20 00:45:44;;;;;;;7.90;3.93;;;10.90;99.90;;;;;;5054325;28;20198;-82
2022/09/20 00:48:29;;;;;;;8.97;4.43;;;11.00;99.90;;;;;;5057845;28;20230;-82
2022/09/20 00:51:03;;;;;;;8.57;3.80;;;10.90;99.90;;;;;;5073267;28;20210;-82
2022/09/20 00:53:34;;;;;;;7.77;3.83;;;10.80;99.90;;;;;;5068981;28;20218;-82
2022/09/20 00:56:05;;;;;;;8.57;4.17;;;10.90;99.90;;;;;;5058075;28;20202;-83
2022/09/20 00:58:37;;;;;;;10.30;4.50;;;10.90;99.90;;;;;;5072797;28;20202;-82
2022/09/20 01:01:06;;;;;;;8.57;4.53;;;10.90;99.90;;;;;;5059477;28;20691;-82
2022/09/20 01:03:37;;;;;;;10.07;3.63;;;10.90;99.90;;;;;;5069840;28;20195;-83
2022/09/20 01:06:09;;;;;;;9.37;4.63;;;10.80;99.90;;;;;;5066090;28;20541;-82
2022/09/20 01:08:38;;;;;;;10.17;4.43;;;10.80;99.90;;;;;;5056103;28;20194;-82
2022/09/20 01:11:06;;;;;;;13.20;4.97;;;10.90;99.90;;;;;;5056940;28;20202;-82
2022/09/20 01:13:36;;;;;;;8.50;4.50;;;10.80;99.90;;;;;;5069702;28;20214;-82
2022/09/20 01:16:05;;;;;;;9.63;4.50;;;10.80;99.90;;;;;;5079900;28;20182;-83
2022/09/20 01:18:36;;;;;;;10.37;4.90;;;10.80;99.90;;;;;;5064119;28;20199;-83
2022/09/20 01:21:06;;;;;;;15.70;5.23;;;10.80;99.90;;;;;;5073812;28;20199;-82
2022/09/20 01:23:42;;;;;;;8.80;4.70;;;10.90;99.90;;;;;;5059612;28;20205;-82
2022/09/20 01:26:36;;;;;;;10.60;5.30;;;10.80;99.90;;;;;;5049250;28;20209;-82
2022/09/20 01:29:16;;;;;;;15.17;5.93;;;10.70;99.90;;;;;;5048990;28;20198;-82
2022/09/20 01:31:50;;;;;;;13.13;5.20;;;10.70;99.90;;;;;;5062942;28;20202;-82
2022/09/20 01:34:22;;;;;;;10.70;5.23;;;10.70;99.90;;;;;;5046004;28;20829;-82
2022/09/20 01:36:53;;;;;;;9.87;4.70;;;10.70;99.90;;;;;;5051236;28;20229;-83
2022/09/20 01:39:31;;;;;;;10.83;6.03;;;10.80;99.90;;;;;;5051979;28;20202;-82
2022/09/20 01:42:01;;;;;;;10.00;4.93;;;10.70;99.90;;;;;;5048168;28;20206;-84
2022/09/20 01:44:38;;;;;;;9.73;4.83;;;10.70;99.90;;;;;;5048161;28;20194;-83
2022/09/20 01:47:11;;;;;;;12.37;5.90;;;10.60;99.90;;;;;;5068178;28;20225;-82
2022/09/20 01:49:50;;;;;;;12.20;5.13;;;10.70;99.90;;;;;;5065134;28;20575;-82
2022/09/20 01:52:51;;;;;;;8.50;4.53;;;10.60;99.90;;;;;;5063720;28;20205;-82
2022/09/20 01:56:07;;;;;;;11.93;5.33;;;10.60;99.90;;;;;;5026395;28;20229;-82
2022/09/20 01:59:03;;;;;;;8.13;5.20;;;10.60;99.90;;;;;;5043636;28;20198;-82
2022/09/20 02:02:04;;;;;;;9.17;5.07;;;10.60;99.90;;;;;;5041659;28;20202;-82
2022/09/20 02:05:09;;;;;;;11.27;5.60;;;10.60;99.90;;;;;;5044765;28;20194;-84
2022/09/20 02:08:12;;;;;;;10.60;4.83;;;10.60;99.90;;;;;;5026789;28;20226;-82
2022/09/20 02:11:06;;;;;;;10.50;5.47;;;10.50;99.90;;;;;;5049808;28;20210;-82
2022/09/20 02:13:58;;;;;;;9.77;5.43;;;10.50;99.90;;;;;;5047545;28;20194;-82
2022/09/20 02:16:44;;;;;;;10.10;5.23;;;10.50;99.90;;;;;;5041680;28;20211;-82
2022/09/20 02:19:30;;;;;;;13.67;6.30;;;10.40;99.90;;;;;;5055275;28;20213;-82
2022/09/20 02:22:11;;;;;;;7.53;5.00;;;10.50;99.90;;;;;;5048996;28;20202;-84
2022/09/20 02:24:45;;;;;;;13.20;5.40;;;10.50;99.90;;;;;;5072821;28;20193;-83
2022/09/20 02:27:21;;;;;;;9.40;4.90;;;10.50;99.90;;;;;;5063130;28;20221;-82
2022/09/20 02:30:00;;;;;;;14.33;5.13;;;10.50;99.90;;;;;;5064819;28;20213;-83
2022/09/20 02:32:57;;;;;;;10.37;5.03;;;10.50;99.90;;;;;;5064768;28;20218;-82
2022/09/20 02:35:40;;;;;;;8.40;5.13;;;10.60;99.90;;;;;;5061601;28;20844;-82
2022/09/20 02:38:21;;;;;;;11.57;5.67;;;10.50;99.90;;;;;;5050693;28;20230;-82
2022/09/20 02:41:20;;;;;;;8.37;5.63;;;10.40;99.90;;;;;;5048200;28;20202;-82
2022/09/20 02:43:56;;;;;;;10.63;5.93;;;10.40;99.90;;;;;;5045417;28;20667;-81
2022/09/20 02:46:30;;;;;;;10.23;5.43;;;10.40;99.90;;;;;;5052091;28;20577;-81
2022/09/20 02:49:06;;;;;;;9.90;6.17;;;10.40;99.90;;;;;;5043259;28;20202;-81
2022/09/20 02:51:40;;;;;;;7.87;5.50;;;10.40;99.90;;;;;;5045628;28;20193;-81
2022/09/20 02:54:18;;;;;;;9.43;5.70;;;10.40;99.90;;;;;;5061116;28;20194;-81
2022/09/20 02:56:52;;;;;;;9.30;5.73;;;10.40;99.90;;;;;;5063141;28;20218;-81
2022/09/20 02:59:29;;;;;;;12.23;6.20;;;10.40;99.90;;;;;;5047311;28;20194;-81
2022/09/20 03:02:07;;;;;;;11.33;6.27;;;10.40;99.90;;;;;;5058388;28;20209;-81
2022/09/20 03:04:48;;;;;;;10.90;5.73;;;10.40;99.90;;;;;;5054158;28;20198;-81
2022/09/20 03:07:22;;;;;;;12.67;6.17;;;10.30;99.90;;;;;;5046701;28;20214;-80
2022/09/20 03:09:56;;;;;;;12.33;6.03;;;10.30;99.90;;;;;;5045630;28;20217;-81
2022/09/20 03:12:37;;;;;;;11.83;6.03;;;10.30;99.90;;;;;;5067017;28;20221;-81
2022/09/20 03:15:16;;;;;;;13.10;6.57;;;10.30;99.90;;;;;;5049726;28;20215;-81
2022/09/20 03:17:49;;;;;;;10.73;6.43;;;10.30;99.90;;;;;;5068147;28;20218;-80
2022/09/20 03:20:33;;;;;;;13.17;5.93;;;10.20;99.90;;;;;;5062646;28;20205;-80
2022/09/20 03:23:13;;;;;;;12.13;6.77;;;10.30;99.90;;;;;;5047193;28;20195;-80
2022/09/20 03:25:55;;;;;;;11.10;6.50;;;10.20;99.90;;;;;;5056491;28;20649;-81
2022/09/20 03:28:42;;;;;;;11.37;6.43;;;10.40;99.90;;;;;;5055488;28;20279;-80
2022/09/20 03:31:22;;;;;;;14.70;7.10;;;10.30;99.90;;;;;;5060091;28;20206;-80
2022/09/20 03:34:01;;;;;;;16.10;7.57;;;10.30;99.90;;;;;;5052405;28;20194;-81
2022/09/20 03:36:47;;;;;;;11.63;6.30;;;10.30;99.90;;;;;;5061632;28;20222;-81
2022/09/20 03:39:45;;;;;;;14.30;7.30;;;10.40;99.90;;;;;;5046839;28;20199;-80
2022/09/20 03:42:16;;;;;;;11.00;6.37;;;10.30;99.90;;;;;;5052103;28;20663;-81
2022/09/20 03:45:06;;;;;;;13.87;6.50;;;10.40;99.90;;;;;;5051977;28;20682;-81
2022/09/20 03:48:03;;;;;;;12.90;7.67;;;10.40;99.90;;;;;;5048666;28;20213;-80
2022/09/20 03:50:46;;;;;;;13.77;6.83;;;10.30;99.90;;;;;;5042367;28;20687;-80
2022/09/20 03:53:32;;;;;;;11.53;6.30;;;10.30;99.90;;;;;;5056001;28;20194;-80
2022/09/20 03:56:11;;;;;;;15.43;6.57;;;10.30;99.90;;;;;;5055833;28;20214;-80
2022/09/20 03:58:54;;;;;;;11.67;6.30;;;10.30;99.90;;;;;;5071060;28;20202;-81
2022/09/20 04:01:40;;;;;;;11.17;6.37;;;10.20;99.90;;;;;;5069533;28;20202;-78
2022/09/20 04:04:16;;;;;;;12.70;7.50;;;10.30;99.90;;;;;;5056028;28;20209;-78
2022/09/20 04:06:58;;;;;;;11.83;6.50;;;10.40;99.90;;;;;;5067547;28;20213;-78
2022/09/20 04:09:47;;;;;;;13.93;7.27;;;10.50;99.90;;;;;;5067002;28;20198;-78
2022/09/20 04:12:25;;;;;;;10.53;6.80;;;10.50;99.90;;;;;;5055153;28;20190;-78
2022/09/20 04:15:02;;;;;;;16.13;7.10;;;10.40;99.90;;;;;;5054524;28;20209;-78
2022/09/20 04:17:41;;;;;;;17.60;7.70;;;10.40;99.90;;;;;;5054362;28;20214;-79
2022/09/20 04:20:20;;;;;;;9.93;6.80;;;10.50;99.90;;;;;;5061994;28;20445;-78
2022/09/20 04:22:51;;;;;;;13.17;7.17;;;10.40;99.90;;;;;;5052689;28;20198;-78
2022/09/20 04:25:23;;;;;;;9.27;6.57;;;10.30;99.90;;;;;;5052415;28;20201;-78
2022/09/20 04:27:56;;;;;;;16.80;7.20;;;10.40;99.90;;;;;;5054196;28;20218;-78
2022/09/20 04:30:28;;;;;;;12.87;7.07;;;10.50;99.90;;;;;;5060004;28;20206;-78
2022/09/20 04:33:00;;;;;;;11.17;6.80;;;10.50;99.90;;;;;;5083288;28;20198;-78
2022/09/20 04:38:28;;;;;;;15.17;8.20;;;10.40;99.90;;;;;;5025624;28;20190;-78
2022/09/20 04:41:40;;;;;;;11.90;7.73;;;10.50;99.90;;;;;;5059906;28;20584;-78
2022/09/20 04:44:36;;;;;;;13.70;8.03;;;10.50;99.90;;;;;;5058278;28;20201;-78
2022/09/20 04:47:37;;;;;;;14.50;8.27;;;10.50;99.90;;;;;;5062553;28;20225;-78
2022/09/20 04:50:41;;;;;;;11.90;7.93;;;10.60;99.90;;;;;;5068891;28;20203;-79
2022/09/20 04:53:36;;;;;;;12.23;7.13;;;10.50;99.90;;;;;;5056432;28;20571;-79
2022/09/20 04:56:16;;;;;;;18.87;8.20;;;10.60;99.90;;;;;;5060304;28;20217;-78
2022/09/20 04:59:05;;;;;;;14.87;8.03;;;10.60;99.90;;;;;;5057268;28;20199;-80
2022/09/20 05:02:07;;;;;;;13.73;8.33;;;10.50;99.90;;;;;;5055730;28;20203;-79
2022/09/20 05:05:14;;;;;;;14.37;8.43;;;10.50;99.90;;;;;;5067169;28;20211;-79
2022/09/20 05:08:19;;;;;;;13.47;9.07;;;10.60;99.90;;;;;;5072653;28;20228;-79
2022/09/20 05:11:26;;;;;;;17.27;8.43;;;10.60;99.90;;;;;;5056638;28;20221;-79
2022/09/20 05:14:23;;;;;;;13.67;7.90;;;10.60;99.90;;;;;;5053489;28;20202;-79
2022/09/20 05:17:06;;;;;;;13.80;8.60;;;10.60;99.90;;;;;;5054789;28;20230;-78
2022/09/20 05:19:44;;;;;;;15.00;8.70;;;10.60;99.90;;;;;;5050712;28;20205;-79
2022/09/20 05:22:40;;;;;;;13.90;7.63;;;10.60;99.90;;;;;;5065507;28;20686;-80
2022/09/20 05:25:24;;;;;;;12.23;8.10;;;10.80;99.90;;;;;;5053321;28;20711;-79
2022/09/20 05:27:57;;;;;;;11.47;7.90;;;10.70;99.90;;;;;;5066215;28;20218;-79
2022/09/20 05:30:34;;;;;;;11.27;8.40;;;10.70;99.90;;;;;;5052058;28;21335;-78
2022/09/20 05:33:12;;;;;;;15.33;8.87;;;10.80;99.90;;;;;;5071480;28;20591;-80
2022/09/20 05:35:47;;;;;;;10.23;7.77;;;10.90;99.90;;;;;;5072795;28;20241;-79
2022/09/20 05:38:22;;;;;;;10.73;7.93;;;11.00;99.90;;;;;;5071396;28;20229;-80
2022/09/20 05:41:07;;;;;;;11.23;7.67;;;10.80;99.90;;;;;;5070582;28;20202;-79
2022/09/20 05:43:39;;;;;;;15.77;9.00;;;10.80;99.90;;;;;;5070272;28;20206;-80
2022/09/20 05:46:19;;;;;;;13.60;7.90;;;10.80;99.90;;;;;;5056129;28;20195;-80
2022/09/20 05:48:55;;;;;;;13.53;7.70;;;10.80;99.90;;;;;;5076657;28;20206;-80
2022/09/20 05:51:36;;;;;;;14.60;9.03;;;10.90;99.90;;;;;;5066665;28;20194;-79
2022/09/20 05:54:41;;;;;;;15.33;8.03;;;10.70;99.90;;;;;;5065416;28;20225;-77
2022/09/20 05:57:21;;;;;;;13.03;8.70;;;10.80;99.90;;;;;;5022192;28;20238;-78
2022/09/20 06:00:01;;;;;;;12.23;8.07;;;10.90;99.90;;;;;;5067170;28;20189;-78
2022/09/20 06:02:52;;;;;;;14.93;8.30;;;10.80;99.90;;;;;;5054842;28;20210;-78
2022/09/20 06:05:32;;;;;;;14.00;9.00;;;10.90;99.90;;;;;;5052416;28;20210;-78
2022/09/20 06:08:38;;;;;;;13.60;7.70;;;10.80;99.90;;;;;;5055517;28;20233;-78
2022/09/20 06:11:22;;;;;;;15.03;7.40;;;11.00;99.90;;;;;;5038384;28;20198;-78
2022/09/20 06:14:04;;;;;;;12.87;8.27;;;11.10;99.90;;;;;;5063483;28;20663;-78
2022/09/20 06:16:41;;;;;;;12.30;7.90;;;11.10;99.90;;;;;;5042966;28;20229;-78
2022/09/20 06:19:20;;;;;;;16.13;8.90;;;11.10;99.90;;;;;;5079998;28;20197;-78
2022/09/20 06:21:52;;;;;;;14.90;8.87;;;10.90;99.90;;;;;;5067882;28;20205;-78
2022/09/20 06:24:32;;;;;;;17.10;10.00;;;11.00;99.90;;;;;;5071068;28;20201;-78
2022/09/20 06:27:03;;;;;;;17.47;9.27;;;11.00;99.90;;;;;;5062428;28;20217;-79
2022/09/20 06:29:36;;;;;;;16.87;9.07;;;11.10;99.90;;;;;;5079464;28;20198;-78
2022/09/20 06:32:03;;;;;;;13.20;8.87;;;11.20;99.90;;;;;;5061559;28;20212;-78
2022/09/20 06:34:32;;;;;;;15.43;9.90;;;11.20;99.90;;;;;;5069395;28;20209;-78
2022/09/20 06:42:45;;;;;;;16.37;9.30;;;11.20;99.90;;;;;;5081050;28;20194;-78
2022/09/20 06:45:12;;;;;;;14.67;8.53;;;11.30;99.90;;;;;;5048856;28;20203;-78
2022/09/20 06:47:40;;;;;;;14.03;8.87;;;11.40;99.90;;;;;;5053730;28;20214;-79
2022/09/20 06:50:16;;;;;;;14.10;8.83;;;11.50;99.90;;;;;;5069373;28;20213;-78
2022/09/20 06:52:45;;;;;;;13.77;8.37;;;11.60;99.90;;;;;;5058636;28;20198;-79
2022/09/20 06:55:20;;;;;;;14.93;9.10;;;11.70;99.90;;;;;;5056570;28;20581;-79
2022/09/20 06:57:48;;;;;;;12.33;7.10;;;11.70;99.90;;;;;;5068941;28;20213;-79
2022/09/20 07:00:16;;;;;;;13.80;7.87;;;11.70;99.90;;;;;;5049773;28;20203;-79
2022/09/20 07:02:45;;;;;;;10.63;7.20;;;11.70;99.90;;;;;;5052872;28;20202;-79
2022/09/20 07:05:16;;;;;;;13.00;7.20;;;11.70;99.90;;;;;;5063181;28;20206;-80
2022/09/20 07:07:46;;;;;;;10.93;5.97;;;11.70;99.90;;;;;;5044448;28;20218;-78
2022/09/20 07:10:14;;;;;;;10.73;6.50;;;11.70;99.90;;;;;;5045840;28;20202;-81
2022/09/20 07:12:43;;;;;;;10.77;6.23;;;11.70;99.90;;;;;;5050002;28;20202;-81
2022/09/20 07:15:11;;;;;;;12.20;6.60;;;11.80;99.90;;;;;;5053681;28;20682;-80
2022/09/20 07:17:39;;;;;;;13.10;6.13;;;11.90;99.90;;;;;;5055662;28;20233;-80
2022/09/20 07:20:07;;;;;;;13.47;6.97;;;12.00;99.90;;;;;;5045128;28;20209;-80
2022/09/20 07:22:36;;;;;;;11.53;6.57;;;12.00;99.90;;;;;;5069402;28;20207;-81
2022/09/20 07:25:04;;;;;;;11.47;6.63;;;12.10;99.90;;;;;;5048290;28;20205;-81
2022/09/20 07:27:31;;;;;;;11.50;6.03;;;12.10;99.90;;;;;;5068609;28;20217;-81
2022/09/20 07:29:59;;;;;;;9.43;6.43;;;11.90;99.90;;;;;;5042340;28;20600;-80
2022/09/20 07:32:27;;;;;;;13.13;7.30;;;11.90;99.90;;;;;;5061439;28;20209;-78
2022/09/20 07:34:54;;;;;;;11.20;6.80;;;11.90;99.90;;;;;;5051408;28;20190;-80
2022/09/20 07:37:22;;;;;;;13.77;7.77;;;12.00;99.90;;;;;;5058992;28;20225;-81
2022/09/20 07:39:50;;;;;;;9.87;6.30;;;12.10;99.90;;;;;;5049958;28;20201;-80
2022/09/20 07:42:18;;;;;;;11.47;7.10;;;12.00;99.90;;;;;;5051423;28;20213;-81
2022/09/20 07:44:46;;;;;;;15.87;7.53;;;11.90;99.90;;;;;;5047527;28;20203;-81
2022/09/20 07:47:14;;;;;;;11.63;7.23;;;11.90;99.90;;;;;;5048719;28;20215;-80
2022/09/20 07:49:41;;;;;;;10.90;6.87;;;11.90;99.90;;;;;;5049368;28;20206;-80
2022/09/20 07:52:10;;;;;;;13.27;6.33;;;12.10;99.90;;;;;;5063904;28;20210;-81
2022/09/20 07:54:37;;;;;;;14.17;7.50;;;12.00;99.90;;;;;;5044854;28;20207;-81
2022/09/20 07:57:06;;;;;;;9.47;7.50;;;12.20;99.90;;;;;;5048395;28;20241;-80
2022/09/20 07:59:34;;;;;;;13.37;6.93;;;12.20;99.90;;;;;;5048469;28;20252;-79
2022/09/20 08:02:01;;;;;;;11.73;7.03;;;12.30;99.90;;;;;;5049421;28;20559;-78
2022/09/20 08:04:29;;;;;;;11.70;6.23;;;12.20;99.90;;;;;;5048093;28;20209;-81
2022/09/20 08:06:57;;;;;;;11.43;6.20;;;12.30;99.90;;;;;;5060746;28;20213;-80
2022/09/20 08:09:25;;;;;;;9.47;5.90;;;12.50;99.90;;;;;;5057192;28;20200;-80
2022/09/20 08:11:52;;;;;;;12.00;7.10;;;12.50;99.90;;;;;;5058074;28;20734;-80
2022/09/20 08:14:21;;;;;;;10.30;5.70;;;12.50;99.90;;;;;;5045884;28;20628;-77
2022/09/20 08:16:49;;;;;;;10.07;6.15;;;12.40;99.90;;;;;;5054413;28;20217;-80
2022/09/20 08:19:18;;;;;;;7.68;5.80;;;12.50;99.90;;;;;;5044459;28;20203;-79
2022/09/20 08:21:45;;;;;;;10.10;6.30;;;12.50;99.90;;;;;;5057981;28;20202;-80
2022/09/20 08:24:15;;;;;;;10.43;6.37;;;12.50;99.90;;;;;;5053400;28;20209;-79
2022/09/20 08:26:43;;;;;;;9.77;6.17;;;12.40;99.90;;;;;;5060252;28;20225;-79
2022/09/20 08:29:12;;;;;;;14.03;6.67;;;12.60;99.90;;;;;;5071332;28;20198;-79
2022/09/20 08:31:41;;;;;;;9.13;6.30;;;12.70;99.90;;;;;;5075358;28;20194;-80
2022/09/20 08:34:11;;;;;;;7.25;6.07;;;12.60;99.90;;;;;;5065205;28;20202;-79
2022/09/20 08:36:40;;;;;;;9.73;5.90;;;12.60;99.90;;;;;;5068954;28;20233;-79
2022/09/20 08:39:08;;;;;;;12.00;5.97;;;12.80;99.90;;;;;;5076870;28;20541;-80
2022/09/20 08:41:42;;;;;;;7.90;5.55;;;12.70;99.90;;;;;;5078387;28;20198;-79
2022/09/20 08:44:15;;;;;;;10.17;4.90;;;12.70;99.90;;;;;;5058090;28;20201;-80
2022/09/20 08:46:47;;;;;;;10.65;5.20;;;12.80;99.90;;;;;;5113169;22;20239;-80
2022/09/20 08:49:24;;;;;;;9.93;5.13;;;12.80;99.90;;;;;;5115018;28;20208;-80
2022/09/20 08:51:53;;;;;;;7.55;4.68;;;13.00;99.90;;;;;;5117888;28;20199;-80
2022/09/20 08:54:23;;;;;;;9.80;5.43;;;13.00;99.90;;;;;;5113701;28;20191;-80
2022/09/20 08:56:51;;;;;;;9.18;5.53;;;13.10;99.90;;;;;;5107616;28;20228;-80
2022/09/20 08:59:20;;;;;;;11.30;5.30;;;13.00;99.90;;;;;;5095980;28;20209;-80
2022/09/20 09:01:50;;;;;;;8.30;4.80;;;13.20;99.90;;;;;;5089144;28;20193;-80
2022/09/20 09:04:20;;;;;;;8.23;4.68;;;13.20;99.90;;;;;;5093306;28;20663;-80
2022/09/20 09:06:48;;;;;;;8.57;4.68;;;13.10;99.90;;;;;;5097365;28;20217;-80
2022/09/20 09:09:19;;;;;;;7.35;4.57;;;13.20;99.90;;;;;;5093771;28;20185;-80
2022/09/20 09:11:48;;;;;;;7.90;4.60;;;13.20;99.90;;;;;;5095009;28;20201;-80
2022/09/20 09:17:11;;;;;;;10.00;4.53;;;13.40;99.90;;;;;;5091408;28;20217;-80
2022/09/20 09:19:47;;;;;;;11.13;4.43;;;13.50;99.90;;;;;;5096033;28;20193;-80
2022/09/20 09:22:20;;;;;;;8.45;3.97;;;13.50;99.90;;;;;;5096492;28;20208;-80
2022/09/20 09:25:07;;;;;;;8.13;4.53;;;13.70;99.90;;;;;;5105424;28;20663;-80
2022/09/20 09:27:35;;;;;;;8.50;4.30;;;13.90;99.90;;;;;;5088068;28;20573;-80
2022/09/20 09:30:20;;;;;;;6.60;4.13;;;14.00;99.90;;;;;;5086686;28;20201;-81
2022/09/20 09:33:18;;;;;;;6.30;3.47;;;14.10;99.90;;;;;;5083792;28;20205;-80
2022/09/20 09:36:24;;;;;;;;;;;;;;;;;;;;;
2022/09/20 09:40:11;;;;;;;;;;;;;;;;;;;;;
2022/09/20 09:42:51;;;;;;;3.08;1.70;;;14.30;99.90;;;;;;4913981;28;20211;-80
2022/09/20 09:45:33;;;;;;;5.78;1.85;;;14.20;99.90;;;;;;5073276;28;20212;-80
2022/09/20 09:48:01;;;;;;;4.32;1.98;;;14.20;99.90;;;;;;5081646;28;20221;-79
2022/09/20 09:50:34;;;;;;;3.45;1.73;;;14.40;99.90;;;;;;5087999;28;20583;-80
2022/09/20 09:53:09;;;;;;;3.35;1.60;;;14.50;99.90;;;;;;5091648;28;20204;-80
2022/09/20 09:56:10;;;;;;;4.07;1.98;;;14.50;99.90;;;;;;5087559;28;20582;-79
2022/09/20 09:58:53;;;;;;;7.15;2.17;;;14.40;99.90;;;;;;5088852;28;20226;-80
2022/09/20 10:01:30;;;;;;;5.75;2.38;;;14.40;99.90;;;;;;5089879;28;20197;-80
2022/09/20 10:04:06;;;;;;;7.90;1.90;;;14.40;99.90;;;;;;5088566;28;20239;-80
2022/09/20 10:06:44;;;;;;;6.18;1.88;;;14.40;99.90;;;;;;5087221;28;20232;-79
2022/09/20 10:09:30;;;;;;;4.40;1.90;;;14.20;99.90;;;;;;5092902;28;20184;-79
2022/09/20 10:12:14;;;;;;;4.45;1.73;;;14.10;99.90;;;;;;5084769;28;20217;-80
2022/09/20 10:14:55;;;;;;;6.35;1.58;;;14.20;99.90;;;;;;5091233;28;20192;-80
2022/09/20 10:17:38;;;;;;;4.35;1.20;;;14.10;99.90;;;;;;5084396;28;20224;-80
2022/09/20 10:20:34;;;;;;;2.58;1.02;;;14.20;99.90;;;;;;5087185;28;20193;-80
2022/09/20 10:23:18;;;;;;;2.33;1.10;;;14.50;99.90;;;;;;5090940;28;20681;-80
2022/09/20 10:25:53;;;;;;;5.55;1.00;;;14.60;99.90;;;;;;5090042;28;20201;-80
2022/09/20 10:28:35;;;;;;;6.95;1.58;;;14.70;99.90;;;;;;5084312;28;20208;-80
2022/09/20 10:31:14;;;;;;;4.22;1.10;;;14.70;99.90;;;;;;5084167;28;20193;-81
2022/09/20 10:33:48;;;;;;;2.35;1.00;;;14.50;99.90;;;;;;5085604;28;20193;-80
2022/09/20 10:36:26;;;;;;;3.30;1.13;;;14.50;99.90;;;;;;5088017;28;20237;-80
2022/09/20 10:39:01;;;;;;;4.38;1.10;;;14.50;99.90;;;;;;5084702;28;20208;-80
2022/09/20 10:44:46;;;;;;;3.03;1.92;;;14.50;99.90;;;;;;5085845;28;20208;-82
2022/09/20 10:47:18;;;;;;;4.40;1.50;;;14.60;99.90;;;;;;5087093;28;20232;-81
2022/09/20 10:49:59;;;;;;;2.95;1.55;;;14.70;99.90;;;;;;5088137;28;20630;-81
2022/09/20 10:52:44;;;;;;;2.97;1.40;;;14.90;99.90;;;;;;5086448;28;20200;-81
2022/09/20 10:55:24;;;;;;;2.38;1.30;;;15.10;99.90;;;;;;5091747;28;20209;-81
2022/09/20 10:58:16;;;;;;;5.32;1.70;;;15.00;99.90;;;;;;5089883;28;20221;-82
2022/09/20 11:00:51;;;;;;;3.05;1.30;;;15.20;99.90;;;;;;5086597;28;20192;-82
2022/09/20 11:03:33;;;;;;;3.33;1.70;;;15.40;99.90;;;;;;5091840;28;20223;-82
2022/09/20 11:06:16;;;;;;;4.22;1.60;;;15.30;99.90;;;;;;5089744;28;20231;-82
2022/09/20 11:08:48;;;;;;;3.53;1.65;;;15.10;99.90;;;;;;5085594;28;20201;-83
2022/09/20 11:11:21;;;;;;;1.55;1.33;;;15.00;99.90;;;;;;5089709;28;20212;-82
2022/09/20 11:13:57;;;;;;;2.17;1.27;;;15.10;99.90;;;;;;5089825;28;20197;-82
2022/09/20 11:16:30;;;;;;;5.05;2.20;;;15.00;99.90;;;;;;5088374;28;20225;-82
2022/09/20 11:19:01;;;;;;;3.95;1.83;;;14.90;99.90;;;;;;5083890;28;20221;-83
2022/09/20 11:21:35;;;;;;;4.10;2.03;;;15.10;99.90;;;;;;5103149;28;20602;-83
2022/09/20 11:24:12;;;;;;;4.32;1.73;;;15.30;99.90;;;;;;5088255;28;20208;-83
2022/09/20 11:26:44;;;;;;;2.67;2.03;;;15.30;99.90;;;;;;5086516;28;20217;-83
2022/09/20 11:29:26;;;;;;;6.40;1.90;;;15.30;99.90;;;;;;5083511;28;20193;-83
2022/09/20 11:31:58;;;;;;;2.88;1.75;;;15.30;99.90;;;;;;5092247;28;20185;-82
2022/09/20 11:34:30;;;;;;;4.65;1.80;;;15.60;99.90;;;;;;5090256;28;20205;-82
2022/09/20 11:37:01;;;;;;;6.25;1.60;;;15.70;99.90;;;;;;5090904;28;20225;-82
2022/09/20 11:39:35;;;;;;;3.40;1.70;;;15.80;99.90;;;;;;5092285;28;20220;-82
2022/09/20 11:42:11;;;;;;;5.18;1.80;;;15.80;99.90;;;;;;5091838;28;20205;-83
2022/09/20 11:44:41;;;;;;;3.85;1.42;;;15.70;99.90;;;;;;5094719;28;20707;-83
2022/09/20 11:47:17;;;;;;;3.80;1.45;;;15.60;99.90;;;;;;5104224;27;20231;-83
2022/09/20 11:50:04;;;;;;;5.15;1.67;;;15.60;99.90;;;;;;5090007;28;20597;-83
2022/09/20 11:52:50;;;;;;;2.75;1.40;;;15.40;99.90;;;;;;5086742;28;20192;-83
2022/09/20 11:55:47;;;;;;;3.78;0.93;;;15.50;99.90;;;;;;5091003;28;20213;-83
2022/09/20 11:58:21;;;;;;;3.40;1.40;;;15.40;99.90;;;;;;5084886;28;20209;-83
2022/09/20 12:00:53;;;;;;;3.25;1.23;;;15.40;99.90;;;;;;5096936;28;20549;-83
2022/09/20 12:03:34;;;;;;;3.03;0.88;;;15.40;99.90;;;;;;5094775;28;20201;-83
2022/09/20 12:06:04;;;;;;;3.40;1.17;;;15.40;99.90;;;;;;5094871;28;20216;-82
2022/09/20 12:08:36;;;;;;;2.33;0.80;;;15.40;99.90;;;;;;5089769;28;20201;-83
2022/09/20 12:11:07;;;;;;;4.68;1.13;;;15.70;99.90;;;;;;5093127;28;20212;-83
2022/09/20 12:13:38;;;;;;;2.13;1.10;;;16.40;99.90;;;;;;5086349;28;20208;-83
2022/09/20 12:16:08;;;;;;;2.13;1.05;;;16.70;99.90;;;;;;5089489;28;20220;-82
2022/09/20 12:19:01;;;;;;;4.63;1.08;;;16.80;99.90;;;;;;5087826;28;20197;-82
2022/09/20 12:21:29;;;;;;;1.05;0.70;;;16.80;98.00;;;;;;5104785;27;20197;-84
2022/09/20 12:24:21;;;;;;;2.42;0.80;;;17.00;98.00;;;;;;5092237;28;20197;-83
2022/09/20 12:26:50;;;;;;;2.70;0.90;;;17.30;96.10;;;;;;5091102;28;20220;-83
2022/09/20 12:30:03;;;;;;;3.75;1.00;;;16.90;98.50;;;;;;5096157;28;20208;-82
2022/09/20 12:32:50;;;;;;;2.58;0.60;;;16.90;95.50;;;;;;5096495;28;20197;-83
2022/09/20 12:36:01;;;;;;;4.35;1.17;;;16.90;95.60;;;;;;5095446;28;20197;-82
2022/09/20 12:38:37;;;;;;;5.28;0.95;;;17.30;96.30;;;;;;4998150;28;20567;-83
2022/09/20 12:41:08;;;;;;;5.47;1.00;;;17.30;96.50;;;;;;5087541;28;20189;-82
2022/09/20 12:43:46;;;;;;;3.45;0.90;;;17.40;95.40;;;;;;5087878;28;20665;-83
2022/09/20 12:46:23;;;;;;;5.15;1.00;;;17.60;96.00;;;;;;5094315;28;20233;-83
2022/09/20 12:48:50;;;;;;;1.30;0.70;;;17.90;96.10;;;;;;5096014;28;20192;-80
2022/09/20 12:54:12;;;;;;;2.67;1.10;;;18.40;93.40;;;;;;5086986;28;20193;-81
2022/09/20 12:56:45;;;;;;;2.67;0.85;;;19.10;92.90;;;;;;5086093;28;20231;-81
2022/09/20 12:59:21;;;;;;;3.33;1.13;;;19.50;92.00;;;;;;5088431;28;20213;-81
2022/09/20 13:01:51;;;;;;;1.77;0.52;;;20.40;85.80;;;;;;5087357;28;20219;-80
2022/09/20 13:04:51;;;;;;;2.38;0.70;;;19.10;86.10;;;;;;5094546;28;20205;-81
2022/09/20 13:07:44;;;;;;;2.00;0.47;;;19.40;88.70;;;;;;5092996;28;20231;-81
2022/09/20 13:10:33;;;;;;;3.13;0.75;;;18.30;84.40;;;;;;5111968;28;20211;-83
2022/09/20 13:13:10;;;;;;;2.42;0.70;;;17.50;90.80;;;;;;5092154;28;20271;-83
2022/09/20 13:15:49;;;;;;;2.28;0.98;;;17.20;92.90;;;;;;5095679;28;20531;-82
2022/09/20 13:18:19;;;;;;;4.25;0.90;;;16.70;93.10;;;;;;5089650;28;20205;-82
2022/09/20 13:20:46;;;;;;;3.05;0.70;;;17.10;92.70;;;;;;5092870;28;20177;-82
2022/09/20 13:23:20;;;;;;;2.65;0.93;;;16.90;93.60;;;;;;5093949;28;20201;-83
2022/09/20 13:25:48;;;;;;;2.50;0.80;;;16.90;93.60;;;;;;5094519;28;20197;-84
2022/09/20 13:28:26;;;;;;;2.58;1.00;;;16.60;93.90;;;;;;5090872;28;20200;-82
2022/09/20 13:31:24;;;;;;;4.72;1.10;;;16.40;94.70;;;;;;5090003;28;20214;-83
2022/09/20 13:33:53;;;;;;;2.83;0.80;;;16.30;96.40;;;;;;5093502;28;20208;-83
2022/09/20 13:36:27;;;;;;;3.47;0.98;;;16.10;96.60;;;;;;5092891;28;20212;-83
2022/09/20 13:38:56;;;;;;;2.00;0.90;;;16.20;96.90;;;;;;5098957;27;20193;-83
2022/09/20 13:41:28;;;;;;;1.67;0.90;;;16.10;96.10;;;;;;5095933;28;20193;-83
2022/09/20 13:43:56;;;;;;;1.52;0.73;;;15.90;96.70;;;;;;5095954;28;20215;-83
2022/09/20 13:46:30;;;;;;;2.13;1.00;;;16.00;97.30;;;;;;5091120;28;20232;-83
2022/09/20 13:49:16;;;;;;;1.88;0.77;;;16.00;97.90;;;;;;5094995;28;20203;-83
2022/09/20 13:51:43;;;;;;;2.75;0.90;;;15.90;96.60;;;;;;5092480;28;20196;-83
2022/09/20 13:54:26;;;;;;;1.48;0.82;;;15.80;97.30;;;;;;5082068;28;20220;-83